sensor_id;sensor_type;location;lat;lon;timestamp;pressure;altitude;pressure_sealevel;temperature;humidity
73106;BME280;61559;50.476;15.588;2022-10-16T00:00:54;97648.85;;;13.11;90.32
73106;BME280;61559;50.476;15.588;2022-10-16T00:03:36;97660.73;;;13.13;90.40
73106;BME280;61559;50.476;15.588;2022-10-16T00:06:08;97664.17;;;13.12;90.26
73106;BME280;61559;50.476;15.588;2022-10-16T00:08:39;97657.88;;;13.12;90.27
73106;BME280;61559;50.476;15.588;2022-10-16T00:11:12;97650.89;;;13.12;90.22
73106;BME280;61559;50.476;15.588;2022-10-16T00:13:45;97648.23;;;13.12;90.38
73106;BME280;61559;50.476;15.588;2022-10-16T00:16:16;97646.48;;;13.14;90.32
73106;BME280;61559;50.476;15.588;2022-10-16T00:18:48;97651.61;;;13.15;90.35
73106;BME280;61559;50.476;15.588;2022-10-16T00:21:21;97656.00;;;13.15;90.31
73106;BME280;61559;50.476;15.588;2022-10-16T00:23:53;97661.69;;;13.15;90.32
73106;BME280;61559;50.476;15.588;2022-10-16T00:26:25;97655.23;;;13.17;90.26
73106;BME280;61559;50.476;15.588;2022-10-16T00:28:56;97654.55;;;13.18;90.29
73106;BME280;61559;50.476;15.588;2022-10-16T00:31:28;97654.16;;;13.20;90.32
73106;BME280;61559;50.476;15.588;2022-10-16T00:33:59;97649.79;;;13.21;90.37
73106;BME280;61559;50.476;15.588;2022-10-16T00:36:31;97654.09;;;13.24;90.44
73106;BME280;61559;50.476;15.588;2022-10-16T00:39:02;97661.23;;;13.25;90.21
73106;BME280;61559;50.476;15.588;2022-10-16T00:41:34;97658.80;;;13.25;90.18
73106;BME280;61559;50.476;15.588;2022-10-16T00:44:44;97664.66;;;13.26;90.18
73106;BME280;61559;50.476;15.588;2022-10-16T00:47:21;97665.95;;;13.27;90.27
73106;BME280;61559;50.476;15.588;2022-10-16T00:49:57;97661.89;;;13.27;90.25
73106;BME280;61559;50.476;15.588;2022-10-16T00:52:29;97665.78;;;13.27;90.24
73106;BME280;61559;50.476;15.588;2022-10-16T00:55:02;97666.58;;;13.26;90.25
73106;BME280;61559;50.476;15.588;2022-10-16T00:57:34;97665.36;;;13.25;90.29
73106;BME280;61559;50.476;15.588;2022-10-16T01:00:08;97665.40;;;13.28;90.33
73106;BME280;61559;50.476;15.588;2022-10-16T01:02:40;97663.20;;;13.29;90.29
73106;BME280;61559;50.476;15.588;2022-10-16T01:05:11;97666.82;;;13.29;90.38
73106;BME280;61559;50.476;15.588;2022-10-16T01:07:49;97669.37;;;13.30;90.38
73106;BME280;61559;50.476;15.588;2022-10-16T01:10:25;97663.21;;;13.31;90.46
73106;BME280;61559;50.476;15.588;2022-10-16T01:13:01;97653.35;;;13.28;90.39
73106;BME280;61559;50.476;15.588;2022-10-16T01:15:37;97658.48;;;13.32;90.38
73106;BME280;61559;50.476;15.588;2022-10-16T01:18:16;97660.88;;;13.33;90.42
73106;BME280;61559;50.476;15.588;2022-10-16T01:20:53;97668.49;;;13.32;90.57
73106;BME280;61559;50.476;15.588;2022-10-16T01:23:36;97669.40;;;13.33;90.51
73106;BME280;61559;50.476;15.588;2022-10-16T01:26:28;97676.79;;;13.33;90.45
73106;BME280;61559;50.476;15.588;2022-10-16T01:29:05;97679.29;;;13.33;90.73
73106;BME280;61559;50.476;15.588;2022-10-16T01:31:40;97679.03;;;13.32;90.83
73106;BME280;61559;50.476;15.588;2022-10-16T01:34:17;97685.67;;;13.31;90.87
73106;BME280;61559;50.476;15.588;2022-10-16T01:36:53;97686.31;;;13.30;90.97
73106;BME280;61559;50.476;15.588;2022-10-16T01:39:30;97685.80;;;13.31;90.84
73106;BME280;61559;50.476;15.588;2022-10-16T01:42:03;97681.12;;;13.30;90.93
73106;BME280;61559;50.476;15.588;2022-10-16T01:44:35;97679.05;;;13.26;91.08
73106;BME280;61559;50.476;15.588;2022-10-16T01:47:09;97681.90;;;13.27;91.11
73106;BME280;61559;50.476;15.588;2022-10-16T01:49:42;97683.41;;;13.28;91.08
73106;BME280;61559;50.476;15.588;2022-10-16T01:52:18;97679.30;;;13.29;91.12
73106;BME280;61559;50.476;15.588;2022-10-16T01:54:51;97675.42;;;13.30;91.05
73106;BME280;61559;50.476;15.588;2022-10-16T01:57:24;97673.89;;;13.28;91.06
73106;BME280;61559;50.476;15.588;2022-10-16T02:00:00;97679.35;;;13.30;91.11
73106;BME280;61559;50.476;15.588;2022-10-16T02:02:31;97680.24;;;13.32;91.12
73106;BME280;61559;50.476;15.588;2022-10-16T02:05:08;97679.81;;;13.33;91.08
73106;BME280;61559;50.476;15.588;2022-10-16T02:07:41;97680.57;;;13.33;91.09
73106;BME280;61559;50.476;15.588;2022-10-16T02:10:13;97677.31;;;13.33;91.13
73106;BME280;61559;50.476;15.588;2022-10-16T02:12:48;97674.60;;;13.34;91.05
73106;BME280;61559;50.476;15.588;2022-10-16T02:15:19;97678.06;;;13.34;91.18
73106;BME280;61559;50.476;15.588;2022-10-16T02:17:50;97681.41;;;13.32;91.16
73106;BME280;61559;50.476;15.588;2022-10-16T02:20:25;97681.25;;;13.32;91.27
73106;BME280;61559;50.476;15.588;2022-10-16T02:22:56;97681.68;;;13.31;91.26
73106;BME280;61559;50.476;15.588;2022-10-16T02:25:30;97678.74;;;13.30;91.23
73106;BME280;61559;50.476;15.588;2022-10-16T02:28:04;97685.42;;;13.31;91.40
73106;BME280;61559;50.476;15.588;2022-10-16T02:30:41;97685.11;;;13.32;91.27
73106;BME280;61559;50.476;15.588;2022-10-16T02:33:14;97685.33;;;13.32;91.31
73106;BME280;61559;50.476;15.588;2022-10-16T02:35:47;97682.80;;;13.32;91.31
73106;BME280;61559;50.476;15.588;2022-10-16T02:38:21;97680.86;;;13.31;91.45
73106;BME280;61559;50.476;15.588;2022-10-16T02:40:53;97676.52;;;13.29;91.42
73106;BME280;61559;50.476;15.588;2022-10-16T02:43:25;97674.06;;;13.29;91.39
73106;BME280;61559;50.476;15.588;2022-10-16T02:45:56;97672.98;;;13.32;91.56
73106;BME280;61559;50.476;15.588;2022-10-16T02:48:27;97672.73;;;13.31;91.32
73106;BME280;61559;50.476;15.588;2022-10-16T02:50:58;97678.66;;;13.32;91.49
73106;BME280;61559;50.476;15.588;2022-10-16T02:53:29;97683.00;;;13.33;91.43
73106;BME280;61559;50.476;15.588;2022-10-16T02:56:00;97688.80;;;13.34;91.43
73106;BME280;61559;50.476;15.588;2022-10-16T02:58:31;97692.89;;;13.34;91.44
73106;BME280;61559;50.476;15.588;2022-10-16T03:01:02;97697.98;;;13.37;91.37
73106;BME280;61559;50.476;15.588;2022-10-16T03:03:33;97693.61;;;13.38;91.39
73106;BME280;61559;50.476;15.588;2022-10-16T03:06:04;97691.63;;;13.39;91.35
73106;BME280;61559;50.476;15.588;2022-10-16T03:08:35;97695.89;;;13.38;91.37
73106;BME280;61559;50.476;15.588;2022-10-16T03:11:06;97701.34;;;13.38;91.39
73106;BME280;61559;50.476;15.588;2022-10-16T03:13:37;97696.25;;;13.38;91.33
73106;BME280;61559;50.476;15.588;2022-10-16T03:16:09;97705.65;;;13.38;91.29
73106;BME280;61559;50.476;15.588;2022-10-16T03:18:40;97708.67;;;13.38;91.24
73106;BME280;61559;50.476;15.588;2022-10-16T03:21:11;97710.59;;;13.40;91.37
73106;BME280;61559;50.476;15.588;2022-10-16T03:23:42;97707.67;;;13.41;91.21
73106;BME280;61559;50.476;15.588;2022-10-16T03:26:13;97708.35;;;13.44;91.25
73106;BME280;61559;50.476;15.588;2022-10-16T03:28:44;97708.67;;;13.45;91.14
73106;BME280;61559;50.476;15.588;2022-10-16T03:31:15;97704.38;;;13.44;91.13
73106;BME280;61559;50.476;15.588;2022-10-16T03:33:46;97704.69;;;13.45;91.12
73106;BME280;61559;50.476;15.588;2022-10-16T03:36:17;97704.75;;;13.44;91.06
73106;BME280;61559;50.476;15.588;2022-10-16T03:38:48;97705.87;;;13.42;91.09
73106;BME280;61559;50.476;15.588;2022-10-16T03:41:19;97709.56;;;13.40;91.20
73106;BME280;61559;50.476;15.588;2022-10-16T03:43:50;97716.61;;;13.41;91.09
73106;BME280;61559;50.476;15.588;2022-10-16T03:46:21;97720.31;;;13.39;91.03
73106;BME280;61559;50.476;15.588;2022-10-16T03:48:52;97726.14;;;13.41;91.12
73106;BME280;61559;50.476;15.588;2022-10-16T03:51:23;97731.83;;;13.43;91.07
73106;BME280;61559;50.476;15.588;2022-10-16T03:53:54;97736.17;;;13.43;90.93
73106;BME280;61559;50.476;15.588;2022-10-16T03:56:25;97736.91;;;13.42;90.91
73106;BME280;61559;50.476;15.588;2022-10-16T03:58:56;97737.58;;;13.43;90.90
73106;BME280;61559;50.476;15.588;2022-10-16T04:01:27;97743.25;;;13.44;90.87
73106;BME280;61559;50.476;15.588;2022-10-16T04:03:58;97742.98;;;13.45;90.83
73106;BME280;61559;50.476;15.588;2022-10-16T04:06:28;97744.39;;;13.43;90.78
73106;BME280;61559;50.476;15.588;2022-10-16T04:09:00;97744.14;;;13.40;90.82
73106;BME280;61559;50.476;15.588;2022-10-16T04:11:31;97742.92;;;13.41;90.82
73106;BME280;61559;50.476;15.588;2022-10-16T04:14:02;97747.52;;;13.41;90.86
73106;BME280;61559;50.476;15.588;2022-10-16T04:16:35;97748.64;;;13.42;90.81
73106;BME280;61559;50.476;15.588;2022-10-16T04:19:06;97753.08;;;13.42;90.73
73106;BME280;61559;50.476;15.588;2022-10-16T04:21:37;97749.06;;;13.41;90.78
73106;BME280;61559;50.476;15.588;2022-10-16T04:24:08;97750.20;;;13.40;90.63
73106;BME280;61559;50.476;15.588;2022-10-16T04:26:41;97755.61;;;13.40;90.87
73106;BME280;61559;50.476;15.588;2022-10-16T04:29:12;97751.15;;;13.39;90.76
73106;BME280;61559;50.476;15.588;2022-10-16T04:31:43;97752.41;;;13.42;90.75
73106;BME280;61559;50.476;15.588;2022-10-16T04:34:12;97742.65;;;13.41;90.64
73106;BME280;61559;50.476;15.588;2022-10-16T04:36:43;97746.16;;;13.39;90.64
73106;BME280;61559;50.476;15.588;2022-10-16T04:39:14;97748.68;;;13.37;90.51
73106;BME280;61559;50.476;15.588;2022-10-16T04:41:44;97749.98;;;13.35;90.57
73106;BME280;61559;50.476;15.588;2022-10-16T04:44:15;97751.43;;;13.35;90.65
73106;BME280;61559;50.476;15.588;2022-10-16T04:46:47;97754.36;;;13.34;90.52
73106;BME280;61559;50.476;15.588;2022-10-16T04:49:18;97762.92;;;13.34;90.59
73106;BME280;61559;50.476;15.588;2022-10-16T04:51:49;97759.79;;;13.33;90.51
73106;BME280;61559;50.476;15.588;2022-10-16T04:54:20;97759.46;;;13.32;90.55
73106;BME280;61559;50.476;15.588;2022-10-16T04:56:51;97756.13;;;13.30;90.49
73106;BME280;61559;50.476;15.588;2022-10-16T04:59:23;97765.95;;;13.30;90.54
73106;BME280;61559;50.476;15.588;2022-10-16T05:01:54;97765.23;;;13.30;90.49
73106;BME280;61559;50.476;15.588;2022-10-16T05:04:25;97769.09;;;13.31;90.55
73106;BME280;61559;50.476;15.588;2022-10-16T05:06:56;97772.90;;;13.30;90.54
73106;BME280;61559;50.476;15.588;2022-10-16T05:09:27;97774.45;;;13.30;90.54
73106;BME280;61559;50.476;15.588;2022-10-16T05:11:58;97776.09;;;13.30;90.63
73106;BME280;61559;50.476;15.588;2022-10-16T05:14:29;97779.63;;;13.30;90.57
73106;BME280;61559;50.476;15.588;2022-10-16T05:17:00;97789.27;;;13.29;90.44
73106;BME280;61559;50.476;15.588;2022-10-16T05:19:31;97789.55;;;13.28;90.62
73106;BME280;61559;50.476;15.588;2022-10-16T05:22:02;97788.61;;;13.29;90.57
73106;BME280;61559;50.476;15.588;2022-10-16T05:24:33;97789.70;;;13.30;90.54
73106;BME280;61559;50.476;15.588;2022-10-16T05:27:04;97785.05;;;13.30;90.53
73106;BME280;61559;50.476;15.588;2022-10-16T05:29:35;97785.00;;;13.31;90.41
73106;BME280;61559;50.476;15.588;2022-10-16T05:32:06;97785.35;;;13.33;90.46
73106;BME280;61559;50.476;15.588;2022-10-16T05:34:36;97783.25;;;13.32;90.40
73106;BME280;61559;50.476;15.588;2022-10-16T05:37:08;97788.58;;;13.32;90.47
73106;BME280;61559;50.476;15.588;2022-10-16T05:39:39;97786.95;;;13.32;90.59
73106;BME280;61559;50.476;15.588;2022-10-16T05:42:10;97787.48;;;13.32;90.41
73106;BME280;61559;50.476;15.588;2022-10-16T05:44:40;97781.09;;;13.32;90.40
73106;BME280;61559;50.476;15.588;2022-10-16T05:47:13;97782.52;;;13.28;90.55
73106;BME280;61559;50.476;15.588;2022-10-16T05:49:44;97783.05;;;13.26;90.50
73106;BME280;61559;50.476;15.588;2022-10-16T05:52:15;97779.92;;;13.26;90.63
73106;BME280;61559;50.476;15.588;2022-10-16T05:54:47;97788.02;;;13.27;90.63
73106;BME280;61559;50.476;15.588;2022-10-16T05:57:18;97796.10;;;13.27;90.73
73106;BME280;61559;50.476;15.588;2022-10-16T05:59:49;97799.23;;;13.28;90.76
73106;BME280;61559;50.476;15.588;2022-10-16T06:02:20;97805.03;;;13.29;90.68
73106;BME280;61559;50.476;15.588;2022-10-16T06:04:52;97816.75;;;13.30;90.66
73106;BME280;61559;50.476;15.588;2022-10-16T06:07:24;97817.08;;;13.30;90.70
73106;BME280;61559;50.476;15.588;2022-10-16T06:09:55;97818.60;;;13.30;90.76
73106;BME280;61559;50.476;15.588;2022-10-16T06:12:27;97818.16;;;13.32;90.62
73106;BME280;61559;50.476;15.588;2022-10-16T06:14:58;97825.37;;;13.33;90.76
73106;BME280;61559;50.476;15.588;2022-10-16T06:17:30;97831.14;;;13.34;90.72
73106;BME280;61559;50.476;15.588;2022-10-16T06:20:01;97837.77;;;13.35;90.68
73106;BME280;61559;50.476;15.588;2022-10-16T06:22:32;97841.36;;;13.39;90.66
73106;BME280;61559;50.476;15.588;2022-10-16T06:25:04;97840.98;;;13.40;90.72
73106;BME280;61559;50.476;15.588;2022-10-16T06:27:35;97842.72;;;13.41;90.54
73106;BME280;61559;50.476;15.588;2022-10-16T06:30:08;97850.90;;;13.42;90.52
73106;BME280;61559;50.476;15.588;2022-10-16T06:32:39;97857.77;;;13.43;90.40
73106;BME280;61559;50.476;15.588;2022-10-16T06:35:10;97861.42;;;13.43;90.44
73106;BME280;61559;50.476;15.588;2022-10-16T06:37:41;97862.34;;;13.44;90.35
73106;BME280;61559;50.476;15.588;2022-10-16T06:40:13;97862.70;;;13.44;90.29
73106;BME280;61559;50.476;15.588;2022-10-16T06:42:44;97869.63;;;13.45;90.30
73106;BME280;61559;50.476;15.588;2022-10-16T06:45:15;97874.89;;;13.46;90.27
73106;BME280;61559;50.476;15.588;2022-10-16T06:47:44;97880.38;;;13.46;90.30
73106;BME280;61559;50.476;15.588;2022-10-16T06:50:14;97881.09;;;13.48;90.31
73106;BME280;61559;50.476;15.588;2022-10-16T06:52:43;97885.02;;;13.51;90.43
73106;BME280;61559;50.476;15.588;2022-10-16T06:55:14;97886.23;;;13.53;90.53
73106;BME280;61559;50.476;15.588;2022-10-16T06:57:48;97886.45;;;13.57;90.49
73106;BME280;61559;50.476;15.588;2022-10-16T07:00:19;97886.89;;;13.59;90.36
73106;BME280;61559;50.476;15.588;2022-10-16T07:02:50;97891.14;;;13.60;90.24
73106;BME280;61559;50.476;15.588;2022-10-16T07:05:21;97899.51;;;13.62;90.22
73106;BME280;61559;50.476;15.588;2022-10-16T07:07:52;97902.98;;;13.64;90.27
73106;BME280;61559;50.476;15.588;2022-10-16T07:10:23;97902.11;;;13.67;90.27
73106;BME280;61559;50.476;15.588;2022-10-16T07:12:54;97900.04;;;13.69;90.13
73106;BME280;61559;50.476;15.588;2022-10-16T07:15:26;97906.92;;;13.71;90.03
73106;BME280;61559;50.476;15.588;2022-10-16T07:17:57;97909.66;;;13.73;89.93
73106;BME280;61559;50.476;15.588;2022-10-16T07:20:28;97916.67;;;13.75;89.94
73106;BME280;61559;50.476;15.588;2022-10-16T07:22:59;97920.84;;;13.77;89.90
73106;BME280;61559;50.476;15.588;2022-10-16T07:25:30;97924.55;;;13.78;89.94
73106;BME280;61559;50.476;15.588;2022-10-16T07:28:01;97928.24;;;13.80;89.92
73106;BME280;61559;50.476;15.588;2022-10-16T07:30:31;97924.09;;;13.82;89.94
73106;BME280;61559;50.476;15.588;2022-10-16T07:33:05;97924.66;;;13.86;90.01
73106;BME280;61559;50.476;15.588;2022-10-16T07:35:36;97924.09;;;13.89;89.94
73106;BME280;61559;50.476;15.588;2022-10-16T07:38:06;97918.11;;;13.94;89.95
73106;BME280;61559;50.476;15.588;2022-10-16T07:40:37;97917.19;;;13.99;89.88
73106;BME280;61559;50.476;15.588;2022-10-16T07:43:08;97916.13;;;14.02;89.71
73106;BME280;61559;50.476;15.588;2022-10-16T07:45:45;97921.23;;;14.09;89.88
73106;BME280;61559;50.476;15.588;2022-10-16T07:48:17;97923.50;;;14.13;89.92
73106;BME280;61559;50.476;15.588;2022-10-16T07:50:48;97925.91;;;14.16;89.63
73106;BME280;61559;50.476;15.588;2022-10-16T07:53:20;97928.59;;;14.17;89.50
73106;BME280;61559;50.476;15.588;2022-10-16T07:55:59;97931.45;;;14.18;89.51
73106;BME280;61559;50.476;15.588;2022-10-16T07:58:30;97939.21;;;14.19;89.36
73106;BME280;61559;50.476;15.588;2022-10-16T08:01:05;97948.90;;;14.22;89.39
73106;BME280;61559;50.476;15.588;2022-10-16T08:03:36;97946.28;;;14.23;89.33
73106;BME280;61559;50.476;15.588;2022-10-16T08:06:07;97947.06;;;14.24;89.13
73106;BME280;61559;50.476;15.588;2022-10-16T08:08:39;97945.95;;;14.28;89.23
73106;BME280;61559;50.476;15.588;2022-10-16T08:11:10;97945.98;;;14.35;89.33
73106;BME280;61559;50.476;15.588;2022-10-16T08:13:41;97947.41;;;14.40;89.04
73106;BME280;61559;50.476;15.588;2022-10-16T08:16:12;97949.54;;;14.46;89.02
73106;BME280;61559;50.476;15.588;2022-10-16T08:18:43;97950.89;;;14.49;88.74
73106;BME280;61559;50.476;15.588;2022-10-16T08:21:16;97953.48;;;14.49;88.45
73106;BME280;61559;50.476;15.588;2022-10-16T08:23:50;97953.99;;;14.49;88.47
73106;BME280;61559;50.476;15.588;2022-10-16T08:26:25;97960.46;;;14.52;88.42
73106;BME280;61559;50.476;15.588;2022-10-16T08:28:57;97961.06;;;14.52;88.58
73106;BME280;61559;50.476;15.588;2022-10-16T08:31:28;97967.32;;;14.58;88.49
73106;BME280;61559;50.476;15.588;2022-10-16T08:33:59;97971.65;;;14.61;88.41
73106;BME280;61559;50.476;15.588;2022-10-16T08:36:30;97977.95;;;14.63;88.31
73106;BME280;61559;50.476;15.588;2022-10-16T08:39:01;97979.02;;;14.64;88.38
73106;BME280;61559;50.476;15.588;2022-10-16T08:41:53;97982.46;;;14.65;88.23
73106;BME280;61559;50.476;15.588;2022-10-16T08:44:43;97977.67;;;14.68;88.18
73106;BME280;61559;50.476;15.588;2022-10-16T08:47:24;97976.39;;;14.72;88.06
73106;BME280;61559;50.476;15.588;2022-10-16T08:49:59;97976.35;;;14.73;87.85
73106;BME280;61559;50.476;15.588;2022-10-16T08:52:34;97977.05;;;14.79;88.01
73106;BME280;61559;50.476;15.588;2022-10-16T08:55:08;97976.11;;;14.87;88.07
73106;BME280;61559;50.476;15.588;2022-10-16T08:57:42;97975.95;;;14.94;88.05
73106;BME280;61559;50.476;15.588;2022-10-16T09:00:15;97972.84;;;14.96;87.38
73106;BME280;61559;50.476;15.588;2022-10-16T09:02:53;97971.98;;;14.99;87.58
73106;BME280;61559;50.476;15.588;2022-10-16T09:06:00;97977.83;;;15.06;87.46
73106;BME280;61559;50.476;15.588;2022-10-16T09:08:46;97982.50;;;15.11;87.31
73106;BME280;61559;50.476;15.588;2022-10-16T09:11:26;97983.98;;;15.13;87.07
73106;BME280;61559;50.476;15.588;2022-10-16T09:14:04;97983.35;;;15.14;87.09
73106;BME280;61559;50.476;15.588;2022-10-16T09:16:41;97981.95;;;15.15;87.02
73106;BME280;61559;50.476;15.588;2022-10-16T09:19:19;97978.69;;;15.17;86.89
73106;BME280;61559;50.476;15.588;2022-10-16T09:21:51;97979.55;;;15.23;87.11
73106;BME280;61559;50.476;15.588;2022-10-16T09:24:25;97980.63;;;15.29;86.97
73106;BME280;61559;50.476;15.588;2022-10-16T09:26:58;97980.13;;;15.35;86.61
73106;BME280;61559;50.476;15.588;2022-10-16T09:29:29;97977.88;;;15.42;87.12
73106;BME280;61559;50.476;15.588;2022-10-16T09:32:10;97977.27;;;15.46;86.93
73106;BME280;61559;50.476;15.588;2022-10-16T09:34:45;97978.09;;;15.49;86.70
73106;BME280;61559;50.476;15.588;2022-10-16T09:37:20;97988.98;;;15.55;86.58
73106;BME280;61559;50.476;15.588;2022-10-16T09:39:53;97991.48;;;15.63;86.12
73106;BME280;61559;50.476;15.588;2022-10-16T09:42:28;97988.15;;;15.70;86.15
73106;BME280;61559;50.476;15.588;2022-10-16T09:45:01;97990.73;;;15.80;86.29
73106;BME280;61559;50.476;15.588;2022-10-16T09:47:35;97993.70;;;15.88;85.69
73106;BME280;61559;50.476;15.588;2022-10-16T09:50:22;97997.15;;;15.94;85.12
73106;BME280;61559;50.476;15.588;2022-10-16T09:53:04;97998.13;;;16.00;85.23
73106;BME280;61559;50.476;15.588;2022-10-16T09:55:35;97996.17;;;16.10;85.52
73106;BME280;61559;50.476;15.588;2022-10-16T09:58:14;98003.84;;;16.19;84.94
73106;BME280;61559;50.476;15.588;2022-10-16T10:00:52;97999.63;;;16.25;84.83
73106;BME280;61559;50.476;15.588;2022-10-16T10:03:35;97998.61;;;16.31;84.65
73106;BME280;61559;50.476;15.588;2022-10-16T10:06:18;97993.36;;;16.37;84.55
73106;BME280;61559;50.476;15.588;2022-10-16T10:09:00;97990.94;;;16.42;84.34
73106;BME280;61559;50.476;15.588;2022-10-16T10:11:41;97988.73;;;16.42;84.03
73106;BME280;61559;50.476;15.588;2022-10-16T10:14:19;97993.29;;;16.48;84.12
73106;BME280;61559;50.476;15.588;2022-10-16T10:16:52;97996.46;;;16.55;84.59
73106;BME280;61559;50.476;15.588;2022-10-16T10:19:26;98001.18;;;16.64;84.19
73106;BME280;61559;50.476;15.588;2022-10-16T10:22:01;98001.59;;;16.75;83.99
73106;BME280;61559;50.476;15.588;2022-10-16T10:24:32;97995.58;;;16.81;82.58
73106;BME280;61559;50.476;15.588;2022-10-16T10:27:06;97994.19;;;16.85;83.06
73106;BME280;61559;50.476;15.588;2022-10-16T10:29:51;97993.69;;;16.89;82.47
73106;BME280;61559;50.476;15.588;2022-10-16T10:32:32;98002.07;;;16.90;82.74
73106;BME280;61559;50.476;15.588;2022-10-16T10:35:18;98011.26;;;16.92;82.39
73106;BME280;61559;50.476;15.588;2022-10-16T10:38:10;98011.34;;;16.93;82.45
73106;BME280;61559;50.476;15.588;2022-10-16T10:40:50;98008.34;;;16.98;82.65
73106;BME280;61559;50.476;15.588;2022-10-16T10:43:38;98004.99;;;16.98;81.95
73106;BME280;61559;50.476;15.588;2022-10-16T10:46:18;98004.20;;;16.93;82.02
73106;BME280;61559;50.476;15.588;2022-10-16T10:49:05;98006.23;;;16.90;82.20
73106;BME280;61559;50.476;15.588;2022-10-16T10:51:44;97997.65;;;16.93;82.51
73106;BME280;61559;50.476;15.588;2022-10-16T10:54:22;97993.60;;;16.97;83.04
73106;BME280;61559;50.476;15.588;2022-10-16T10:57:01;97993.59;;;17.03;82.50
73106;BME280;61559;50.476;15.588;2022-10-16T10:59:54;97995.73;;;17.12;83.11
73106;BME280;61559;50.476;15.588;2022-10-16T11:02:33;97995.32;;;17.26;83.26
73106;BME280;61559;50.476;15.588;2022-10-16T11:05:21;97996.24;;;17.35;81.91
73106;BME280;61559;50.476;15.588;2022-10-16T11:07:57;98000.30;;;17.40;81.23
73106;BME280;61559;50.476;15.588;2022-10-16T11:10:33;97998.67;;;17.45;81.30
73106;BME280;61559;50.476;15.588;2022-10-16T11:13:15;97996.76;;;17.51;81.19
73106;BME280;61559;50.476;15.588;2022-10-16T11:15:50;97998.64;;;17.59;81.29
73106;BME280;61559;50.476;15.588;2022-10-16T11:18:27;98001.91;;;17.65;81.28
73106;BME280;61559;50.476;15.588;2022-10-16T11:21:04;97996.91;;;17.71;81.12
73106;BME280;61559;50.476;15.588;2022-10-16T11:23:42;97999.15;;;17.75;80.87
73106;BME280;61559;50.476;15.588;2022-10-16T11:26:18;98002.02;;;17.81;80.64
73106;BME280;61559;50.476;15.588;2022-10-16T11:28:51;98000.98;;;17.88;80.58
73106;BME280;61559;50.476;15.588;2022-10-16T11:31:36;97999.46;;;17.97;80.03
73106;BME280;61559;50.476;15.588;2022-10-16T11:34:15;97993.76;;;18.02;80.20
73106;BME280;61559;50.476;15.588;2022-10-16T11:36:51;97993.56;;;18.11;80.80
73106;BME280;61559;50.476;15.588;2022-10-16T11:39:23;97986.65;;;18.21;80.83
73106;BME280;61559;50.476;15.588;2022-10-16T11:41:59;97990.59;;;18.29;80.50
73106;BME280;61559;50.476;15.588;2022-10-16T11:44:48;97995.73;;;18.37;79.57
73106;BME280;61559;50.476;15.588;2022-10-16T11:47:34;97996.36;;;18.43;78.50
73106;BME280;61559;50.476;15.588;2022-10-16T11:50:28;97998.55;;;18.48;77.70
73106;BME280;61559;50.476;15.588;2022-10-16T11:53:07;98006.16;;;18.49;77.46
73106;BME280;61559;50.476;15.588;2022-10-16T11:55:41;98007.88;;;18.53;77.56
73106;BME280;61559;50.476;15.588;2022-10-16T11:58:22;98009.90;;;18.58;77.39
73106;BME280;61559;50.476;15.588;2022-10-16T12:01:00;98016.25;;;18.65;77.62
73106;BME280;61559;50.476;15.588;2022-10-16T12:03:35;98019.55;;;18.74;77.40
73106;BME280;61559;50.476;15.588;2022-10-16T12:06:19;98021.66;;;18.85;76.95
73106;BME280;61559;50.476;15.588;2022-10-16T12:08:54;98021.39;;;18.95;76.46
73106;BME280;61559;50.476;15.588;2022-10-16T12:11:36;98024.00;;;19.04;76.24
73106;BME280;61559;50.476;15.588;2022-10-16T12:14:20;98019.65;;;19.09;75.98
73106;BME280;61559;50.476;15.588;2022-10-16T12:16:57;98019.07;;;19.20;76.59
73106;BME280;61559;50.476;15.588;2022-10-16T12:19:30;98014.98;;;19.31;76.13
73106;BME280;61559;50.476;15.588;2022-10-16T12:22:03;98011.46;;;19.40;75.69
73106;BME280;61559;50.476;15.588;2022-10-16T12:24:36;98011.11;;;19.50;75.48
73106;BME280;61559;50.476;15.588;2022-10-16T12:27:27;98016.75;;;19.57;74.23
73106;BME280;61559;50.476;15.588;2022-10-16T12:30:00;98019.13;;;19.62;75.03
73106;BME280;61559;50.476;15.588;2022-10-16T12:32:34;98018.36;;;19.66;74.29
73106;BME280;61559;50.476;15.588;2022-10-16T12:35:23;98016.59;;;19.67;74.52
73106;BME280;61559;50.476;15.588;2022-10-16T12:38:11;98015.25;;;19.68;74.67
73106;BME280;61559;50.476;15.588;2022-10-16T12:40:46;98009.60;;;19.64;73.38
73106;BME280;61559;50.476;15.588;2022-10-16T12:43:34;98006.99;;;19.59;73.55
73106;BME280;61559;50.476;15.588;2022-10-16T12:46:20;98002.78;;;19.56;73.66
73106;BME280;61559;50.476;15.588;2022-10-16T12:48:52;98008.05;;;19.54;73.58
73106;BME280;61559;50.476;15.588;2022-10-16T12:51:37;98015.13;;;19.54;73.56
73106;BME280;61559;50.476;15.588;2022-10-16T12:54:15;98018.88;;;19.55;74.81
73106;BME280;61559;50.476;15.588;2022-10-16T12:56:53;98019.59;;;19.57;74.22
73106;BME280;61559;50.476;15.588;2022-10-16T12:59:37;98014.33;;;19.60;74.48
73106;BME280;61559;50.476;15.588;2022-10-16T13:02:18;98015.45;;;19.66;74.21
73106;BME280;61559;50.476;15.588;2022-10-16T13:05:14;98017.02;;;19.71;75.27
73106;BME280;61559;50.476;15.588;2022-10-16T13:07:56;98018.17;;;19.80;74.60
73106;BME280;61559;50.476;15.588;2022-10-16T13:10:36;98021.92;;;19.86;74.54
73106;BME280;61559;50.476;15.588;2022-10-16T13:13:32;98024.57;;;19.89;74.15
73106;BME280;61559;50.476;15.588;2022-10-16T13:16:15;98025.14;;;19.94;73.63
73106;BME280;61559;50.476;15.588;2022-10-16T13:18:58;98029.42;;;20.03;73.36
73106;BME280;61559;50.476;15.588;2022-10-16T13:21:35;98029.64;;;20.08;73.56
73106;BME280;61559;50.476;15.588;2022-10-16T13:24:19;98029.05;;;20.09;73.82
73106;BME280;61559;50.476;15.588;2022-10-16T13:27:00;98028.73;;;20.13;73.85
73106;BME280;61559;50.476;15.588;2022-10-16T13:29:38;98030.36;;;20.11;72.31